createdAt,value
2022-08-09T00:00:35.033Z,71.06
2022-08-09T00:04:05.590Z,71.23
2022-08-09T00:06:17.699Z,71.12
2022-08-09T00:08:51.878Z,71.45
2022-08-09T00:11:24.409Z,71.90
2022-08-09T00:13:52.755Z,72.00
2022-08-09T00:16:26.292Z,72.32
2022-08-09T00:19:09.484Z,72.24
2022-08-09T00:21:43.247Z,72.51
2022-08-09T00:24:24.343Z,71.92
2022-08-09T00:26:52.372Z,71.89
2022-08-09T00:30:16.179Z,71.77
2022-08-09T00:32:07.044Z,71.64
2022-08-09T00:34:34.205Z,72.05
2022-08-09T00:37:02.259Z,71.88
2022-08-09T00:40:13.534Z,72.51
2022-08-09T00:44:16.635Z,72.42
2022-08-09T00:45:16.043Z,72.32
2022-08-09T00:47:45.434Z,72.22
2022-08-09T00:50:14.437Z,72.64
2022-08-09T00:52:42.373Z,72.79
2022-08-09T00:55:32.956Z,72.62
2022-08-09T00:57:59.420Z,72.56
2022-08-09T01:00:27.762Z,72.10
2022-08-09T01:03:04.228Z,72.43
2022-08-09T01:05:57.513Z,72.43
2022-08-09T01:08:48.895Z,72.55
2022-08-09T01:11:55.443Z,73.01
2022-08-09T01:14:55.372Z,73.23
2022-08-09T01:17:40.419Z,72.77
2022-08-09T01:20:22.017Z,73.18
2022-08-09T01:24:01.259Z,73.64
2022-08-09T01:26:19.116Z,73.49
2022-08-09T01:28:50.852Z,73.34
2022-08-09T01:32:28.103Z,72.82
2022-08-09T01:34:13.416Z,71.55
2022-08-09T01:36:45.603Z,72.17
2022-08-09T01:39:16.727Z,71.73
2022-08-09T01:41:59.922Z,71.52
2022-08-09T01:44:30.817Z,71.83
2022-08-09T01:47:02.956Z,71.36
2022-08-09T01:49:39.180Z,71.65
2022-08-09T01:52:15.649Z,70.88
2022-08-09T01:54:47.428Z,70.89
2022-08-09T01:57:22.959Z,70.74
2022-08-09T02:00:00.162Z,69.64
2022-08-09T02:02:45.413Z,69.65
2022-08-09T02:05:16.255Z,70.09
2022-08-09T02:08:40.610Z,69.09
2022-08-09T02:10:50.849Z,68.52
2022-08-09T02:13:21.982Z,68.46
2022-08-09T02:15:56.406Z,67.93
2022-08-09T02:18:29.219Z,66.91
2022-08-09T02:20:58.819Z,67.33
2022-08-09T02:23:42.693Z,66.68
2022-08-09T02:26:24.712Z,66.62
2022-08-09T02:29:00.573Z,66.69
2022-08-09T02:31:34.266Z,67.38
2022-08-09T02:34:40.712Z,67.15
2022-08-09T02:37:17.991Z,67.22
2022-08-09T02:39:55.243Z,67.80
2022-08-09T02:42:34.124Z,67.60
2022-08-09T02:45:26.514Z,67.53
2022-08-09T02:47:58.784Z,67.69
2022-08-09T02:50:33.618Z,66.85
2022-08-09T02:53:05.392Z,66.49
2022-08-09T02:55:46.404Z,65.99
2022-08-09T02:58:36.432Z,65.54
2022-08-09T03:01:08.332Z,65.32
2022-08-09T03:04:17.258Z,65.23
2022-08-09T03:06:29.024Z,65.25
2022-08-09T03:08:57.960Z,64.71
2022-08-09T03:12:04.629Z,64.99
2022-08-09T03:14:16.005Z,65.15
2022-08-09T03:16:47.460Z,64.98
2022-08-09T03:19:59.653Z,65.55
2022-08-09T03:22:11.944Z,65.34
2022-08-09T03:25:06.542Z,65.64
2022-08-09T03:27:48.622Z,65.89
2022-08-09T03:30:29.814Z,66.03
2022-08-09T03:33:17.768Z,66.46
2022-08-09T03:36:13.570Z,66.19
2022-08-09T03:38:41.934Z,66.20
2022-08-09T03:41:15.567Z,65.55
2022-08-09T03:44:02.981Z,65.32
2022-08-09T03:46:32.555Z,65.51
2022-08-09T03:49:04.350Z,65.84
2022-08-09T03:51:43.632Z,65.41
2022-08-09T03:54:29.456Z,65.53
2022-08-09T03:57:00.513Z,65.57
2022-08-09T03:59:53.905Z,65.39
2022-08-09T04:02:15.347Z,65.36
2022-08-09T04:04:54.312Z,64.89
2022-08-09T04:07:21.597Z,64.42
2022-08-09T04:09:50.200Z,64.44
2022-08-09T04:12:36.478Z,64.33
2022-08-09T04:15:17.084Z,64.32
2022-08-09T04:17:51.306Z,64.37
2022-08-09T04:20:19.295Z,64.85
2022-08-09T04:22:47.485Z,65.36
2022-08-09T04:25:17.678Z,65.49
2022-08-09T04:27:49.138Z,65.74
2022-08-09T04:30:23.511Z,65.95
2022-08-09T04:32:54.201Z,66.05
2022-08-09T04:35:21.822Z,65.88
2022-08-09T04:37:49.950Z,66.58
2022-08-09T04:40:18.962Z,66.42
2022-08-09T04:42:48.616Z,66.73
2022-08-09T04:45:20.379Z,66.33
2022-08-09T04:48:01.123Z,66.72
2022-08-09T04:50:34.822Z,67.19
2022-08-09T04:53:02.987Z,67.57
2022-08-09T04:55:39.044Z,67.44
2022-08-09T04:58:18.530Z,66.53
2022-08-09T05:00:46.491Z,65.79
2022-08-09T05:03:40.034Z,65.38
2022-08-09T05:06:07.031Z,64.24
2022-08-09T05:08:36.060Z,63.01
2022-08-09T05:11:07.463Z,61.19
2022-08-09T05:13:38.943Z,57.98
2022-08-09T05:16:10.505Z,52.56
2022-08-09T05:18:58.127Z,50.92
2022-08-09T05:21:30.519Z,47.34
2022-08-09T05:24:12.229Z,45.22
2022-08-09T05:26:46.068Z,43.67
2022-08-09T05:29:24.488Z,41.78
2022-08-09T05:32:02.107Z,41.71
2022-08-09T05:34:32.564Z,43.52
2022-08-09T05:37:04.939Z,41.83
2022-08-09T05:39:42.474Z,40.43
2022-08-09T05:42:21.422Z,37.64
2022-08-09T05:44:54.309Z,36.73
2022-08-09T05:47:22.566Z,35.62
2022-08-09T05:50:24.324Z,35.85
2022-08-09T05:52:42.842Z,37.15
2022-08-09T05:55:18.189Z,35.99
2022-08-09T05:57:56.145Z,36.38
2022-08-09T06:00:29.720Z,36.52
2022-08-09T06:03:02.616Z,36.35
2022-08-09T06:05:57.143Z,36.50
2022-08-09T06:08:24.249Z,36.27
2022-08-09T06:10:54.148Z,37.13
2022-08-09T06:13:22.047Z,38.78
2022-08-09T06:15:51.824Z,39.06
2022-08-09T06:18:24.824Z,37.84
2022-08-09T06:20:57.360Z,37.47
2022-08-09T06:23:55.116Z,38.41
2022-08-09T06:26:20.545Z,38.73
2022-08-09T06:29:00.710Z,40.46
2022-08-09T06:31:39.842Z,42.48
2022-08-09T06:34:22.519Z,43.16
2022-08-09T06:36:59.523Z,44.00
2022-08-09T06:39:48.544Z,44.11
2022-08-09T06:42:24.405Z,44.94
2022-08-09T06:44:54.563Z,43.35
2022-08-09T06:47:22.473Z,43.01
2022-08-09T06:50:13.404Z,42.76
2022-08-09T06:52:46.933Z,43.81
2022-08-09T06:55:22.908Z,43.01
2022-08-09T06:58:02.571Z,43.78
2022-08-09T07:00:51.633Z,44.23
2022-08-09T07:03:19.031Z,43.96
2022-08-09T07:05:58.548Z,43.63
2022-08-09T07:08:31.630Z,42.97
2022-08-09T07:10:58.739Z,43.32
2022-08-09T07:13:28.123Z,44.05
2022-08-09T07:16:42.302Z,44.91
2022-08-09T07:18:44.639Z,45.24
2022-08-09T07:21:16.353Z,46.33
2022-08-09T07:23:56.357Z,46.23
2022-08-09T07:26:25.726Z,47.07
2022-08-09T07:29:08.473Z,47.32
2022-08-09T07:31:45.420Z,47.40
2022-08-09T07:34:19.531Z,46.62
2022-08-09T07:36:49.503Z,46.43
2022-08-09T07:39:19.747Z,46.32
2022-08-09T07:41:48.342Z,46.07
2022-08-09T07:44:15.518Z,47.66
2022-08-09T07:46:43.045Z,47.82
2022-08-09T07:49:15.294Z,47.49
2022-08-09T07:52:06.048Z,47.01
2022-08-09T07:54:31.806Z,46.71
2022-08-09T07:56:58.993Z,47.85
2022-08-09T07:59:45.479Z,48.35
2022-08-09T08:02:13.547Z,48.27
2022-08-09T08:04:48.745Z,49.35
2022-08-09T08:08:42.978Z,49.37
2022-08-09T08:10:07.861Z,48.74
2022-08-09T08:12:43.743Z,49.26
2022-08-09T08:15:16.443Z,49.84
2022-08-09T08:17:52.992Z,49.91
2022-08-09T08:20:30.801Z,49.63
2022-08-09T08:23:06.958Z,49.44
2022-08-09T08:25:48.297Z,50.55
2022-08-09T08:28:31.909Z,50.36
2022-08-09T08:31:04.671Z,51.73
2022-08-09T08:33:52.054Z,52.16
2022-08-09T08:36:28.470Z,51.08
2022-08-09T08:38:57.244Z,50.64
2022-08-09T08:41:24.797Z,49.88
2022-08-09T08:44:09.835Z,50.87
2022-08-09T08:47:02.439Z,51.45
2022-08-09T08:49:47.250Z,51.45
2022-08-09T08:55:15.367Z,53.55
2022-08-09T08:57:56.348Z,53.52
2022-08-09T09:00:27.342Z,53.59
2022-08-09T09:03:11.485Z,54.50
2022-08-09T09:05:59.821Z,54.83
2022-08-09T09:08:52.349Z,54.65
2022-08-09T09:11:20.805Z,56.09
2022-08-09T09:13:56.554Z,56.15
2022-08-09T09:16:34.549Z,57.81
2022-08-09T09:22:00.618Z,61.84
2022-08-09T09:24:33.194Z,63.73
2022-08-09T09:27:03.446Z,64.10
2022-08-09T09:29:45.973Z,64.95
2022-08-09T09:32:34.644Z,65.17
2022-08-09T09:35:07.497Z,65.16
2022-08-09T09:37:40.660Z,65.46
2022-08-09T09:40:11.613Z,65.84
2022-08-09T09:42:39.489Z,65.60
2022-08-09T09:45:10.570Z,66.13
2022-08-09T09:47:56.215Z,66.27
2022-08-09T09:50:55.954Z,66.42
2022-08-09T09:53:57.881Z,65.00
2022-08-09T09:56:20.134Z,65.00
2022-08-09T09:58:59.589Z,65.64
2022-08-09T10:01:31.544Z,64.32
2022-08-09T10:04:30.930Z,64.29
2022-08-09T10:07:03.267Z,64.50
2022-08-09T10:09:54.794Z,64.30
2022-08-09T10:12:43.611Z,64.89
2022-08-09T10:15:51.113Z,65.73
2022-08-09T10:18:11.864Z,63.77
2022-08-09T10:20:45.072Z,63.80
2022-08-09T10:23:20.039Z,63.54
2022-08-09T10:26:06.307Z,63.62
2022-08-09T10:28:37.455Z,64.27
2022-08-09T10:32:27.560Z,63.62
2022-08-09T10:34:09.658Z,63.83
2022-08-09T10:36:42.082Z,63.40
2022-08-09T10:39:13.983Z,63.47
2022-08-09T10:41:47.832Z,62.72
2022-08-09T10:44:23.308Z,63.24
2022-08-09T10:46:57.441Z,63.22
2022-08-09T10:49:54.232Z,63.72
2022-08-09T10:52:56.722Z,63.04
2022-08-09T10:55:35.771Z,63.37
2022-08-09T10:58:34.752Z,62.98
2022-08-09T11:03:06.676Z,62.16
2022-08-09T11:04:19.672Z,62.55
2022-08-09T11:07:00.226Z,62.61
2022-08-09T11:09:56.180Z,62.01
2022-08-09T11:12:29.948Z,62.58
2022-08-09T11:15:23.971Z,62.09
2022-08-09T11:18:02.899Z,61.39
2022-08-09T11:20:45.674Z,60.93
2022-08-09T11:23:13.884Z,60.16
2022-08-09T11:25:47.880Z,60.81
2022-08-09T11:28:54.457Z,60.18
2022-08-09T11:31:43.293Z,59.70
2022-08-09T11:34:35.484Z,59.65
2022-08-09T11:37:07.196Z,60.38
2022-08-09T11:40:02.905Z,60.18
2022-08-09T11:42:49.329Z,59.13
2022-08-09T11:45:37.658Z,60.58
2022-08-09T11:48:19.502Z,62.00
2022-08-09T11:52:53.989Z,62.50
2022-08-09T11:54:13.817Z,63.44
2022-08-09T11:56:48.493Z,63.52
2022-08-09T11:59:34.117Z,63.30
2022-08-09T12:02:17.502Z,63.30
2022-08-09T12:04:54.724Z,64.02
2022-08-09T12:07:34.465Z,62.69
2022-08-09T12:10:38.038Z,62.70
2022-08-09T12:12:58.610Z,61.63
2022-08-09T12:15:48.836Z,62.50
2022-08-09T12:18:25.928Z,64.47
2022-08-09T12:20:59.300Z,63.98
2022-08-09T12:23:57.892Z,60.79
2022-08-09T12:26:25.327Z,60.04
2022-08-09T12:29:14.710Z,59.96
2022-08-09T12:31:59.013Z,60.87
2022-08-09T12:34:39.837Z,59.98
2022-08-09T12:37:21.824Z,59.50
2022-08-09T12:40:27.507Z,59.42
2022-08-09T12:42:56.315Z,58.98
2022-08-09T12:45:33.797Z,60.63
2022-08-09T12:48:19.804Z,58.60
2022-08-09T12:50:55.850Z,59.03
2022-08-09T12:53:36.711Z,57.65
2022-08-09T12:56:39.857Z,57.46
2022-08-09T12:59:15.663Z,59.25
2022-08-09T13:01:49.716Z,59.39
2022-08-09T13:04:33.207Z,58.61
2022-08-09T13:07:19.313Z,58.04
2022-08-09T13:09:55.807Z,57.47
2022-08-09T13:12:29.532Z,58.32
2022-08-09T13:15:08.343Z,59.87
2022-08-09T13:18:02.491Z,60.81
2022-08-09T13:20:37.214Z,60.58
2022-08-09T13:24:44.578Z,61.00
2022-08-09T13:26:06.456Z,60.86
2022-08-09T13:28:39.447Z,61.89
2022-08-09T13:32:16.050Z,61.36
2022-08-09T13:33:57.566Z,63.05
2022-08-09T13:36:41.032Z,64.22
2022-08-09T13:41:21.288Z,64.43
2022-08-09T13:42:12.548Z,64.26
2022-08-09T13:44:42.788Z,65.13
2022-08-09T13:47:33.097Z,63.97
2022-08-09T13:50:01.806Z,64.23
2022-08-09T13:52:30.837Z,64.55
2022-08-09T13:55:01.752Z,65.65
2022-08-09T13:57:40.313Z,66.23
2022-08-09T14:00:15.465Z,65.38
2022-08-09T14:03:03.277Z,64.31
2022-08-09T14:05:59.082Z,65.80
2022-08-09T14:08:21.721Z,65.74
2022-08-09T14:10:52.689Z,66.14
2022-08-09T14:13:28.364Z,66.49
2022-08-09T14:16:15.611Z,66.02
2022-08-09T14:18:49.062Z,65.80
2022-08-09T14:21:20.426Z,66.70
2022-08-09T14:23:53.684Z,66.86
2022-08-09T14:26:32.046Z,67.31
2022-08-09T14:29:03.455Z,66.12
2022-08-09T14:31:52.256Z,67.72
2022-08-09T14:34:32.435Z,68.06
2022-08-09T14:37:07.904Z,67.87
2022-08-09T14:39:45.743Z,69.32
2022-08-09T14:42:30.134Z,69.37
2022-08-09T14:46:40.562Z,70.08
2022-08-09T14:47:57.423Z,70.29
2022-08-09T14:50:28.905Z,70.41
2022-08-09T14:52:56.663Z,70.59
2022-08-09T14:55:25.035Z,70.78
2022-08-09T14:57:52.304Z,70.43
2022-08-09T15:00:22.477Z,70.76
2022-08-09T15:02:51.862Z,70.86
2022-08-09T15:05:20.392Z,70.93
2022-08-09T15:07:56.132Z,70.17
2022-08-09T15:10:31.580Z,69.54
2022-08-09T15:13:03.163Z,68.45
2022-08-09T15:15:34.504Z,57.91
2022-08-09T15:18:13.989Z,53.54
2022-08-09T15:21:57.883Z,50.49
2022-08-09T15:24:01.493Z,48.58
2022-08-09T15:26:31.386Z,49.71
2022-08-09T15:29:04.268Z,51.16
2022-08-09T15:31:40.748Z,51.05
2022-08-09T15:34:32.957Z,50.68
2022-08-09T15:36:56.026Z,50.03
2022-08-09T15:39:34.844Z,50.24
2022-08-09T15:42:14.825Z,50.14
2022-08-09T15:44:42.400Z,50.29
2022-08-09T15:47:14.536Z,50.72
2022-08-09T15:50:03.876Z,51.12
2022-08-09T15:52:34.025Z,51.25
2022-08-09T15:55:02.382Z,51.29
2022-08-09T15:57:35.982Z,50.93
2022-08-09T16:00:26.742Z,50.67
2022-08-09T16:02:56.193Z,50.39
2022-08-09T16:05:47.301Z,50.66
2022-08-09T16:08:30.459Z,50.42
2022-08-09T16:11:03.403Z,50.37
2022-08-09T16:14:03.695Z,50.11
2022-08-09T16:16:20.042Z,49.77
2022-08-09T16:18:53.511Z,49.70
2022-08-09T16:21:25.559Z,49.65
2022-08-09T16:23:55.578Z,49.23
2022-08-09T16:26:33.891Z,49.32
2022-08-09T16:29:11.068Z,49.28
2022-08-09T16:32:19.132Z,49.02
2022-08-09T16:34:54.556Z,48.72
2022-08-09T16:37:54.889Z,48.71
2022-08-09T16:40:29.692Z,48.56
2022-08-09T16:43:04.974Z,48.23
2022-08-09T16:45:32.961Z,48.40
2022-08-09T16:48:41.538Z,47.58
2022-08-09T16:50:58.718Z,47.55
2022-08-09T16:53:34.275Z,47.34
2022-08-09T16:56:09.351Z,46.80
2022-08-09T16:58:49.946Z,46.42
2022-08-09T17:01:19.503Z,46.18
2022-08-09T17:03:51.166Z,45.69
2022-08-09T17:06:29.106Z,45.39
2022-08-09T17:09:17.537Z,44.87
2022-08-09T17:11:52.665Z,43.42
2022-08-09T17:14:27.588Z,41.90
2022-08-09T17:17:01.316Z,40.97
2022-08-09T17:19:47.185Z,41.53
2022-08-09T17:22:34.028Z,40.44
2022-08-09T17:25:10.227Z,39.17
2022-08-09T17:27:49.303Z,38.68
2022-08-09T17:30:22.565Z,38.82
2022-08-09T17:32:53.436Z,38.59
2022-08-09T17:35:20.726Z,39.04
2022-08-09T17:38:02.333Z,38.45
2022-08-09T17:40:35.952Z,37.86
2022-08-09T17:43:32.025Z,38.15
2022-08-09T17:46:04.247Z,38.09
2022-08-09T17:48:40.262Z,38.31
2022-08-09T17:51:18.149Z,38.46
2022-08-09T17:53:52.159Z,38.57
2022-08-09T17:56:28.819Z,38.96
2022-08-09T17:59:03.216Z,39.82
2022-08-09T18:02:06.144Z,40.33
2022-08-09T18:04:23.556Z,40.99
2022-08-09T18:06:55.216Z,41.37
2022-08-09T18:09:40.011Z,42.02
2022-08-09T18:12:17.173Z,42.63
2022-08-09T18:14:57.330Z,42.78
2022-08-09T18:17:27.400Z,43.00
2022-08-09T18:20:59.575Z,43.48
2022-08-09T18:23:05.681Z,43.75
2022-08-09T18:25:50.272Z,44.30
2022-08-09T18:30:42.517Z,44.39
2022-08-09T18:31:12.286Z,44.74
2022-08-09T18:33:40.343Z,45.32
2022-08-09T18:36:14.154Z,45.18
2022-08-09T18:38:55.142Z,45.27
2022-08-09T18:41:27.765Z,45.17
2022-08-09T18:43:55.078Z,45.46
2022-08-09T18:46:49.451Z,45.52
2022-08-09T18:49:10.834Z,45.61
2022-08-09T18:51:54.558Z,45.77
2022-08-09T18:54:29.583Z,51.69
2022-08-09T18:57:05.136Z,57.10
2022-08-09T18:59:37.286Z,57.98
2022-08-09T19:02:15.926Z,58.15
2022-08-09T19:04:43.279Z,60.80
2022-08-09T19:07:16.295Z,60.41
2022-08-09T19:10:14.485Z,60.95
2022-08-09T19:12:37.614Z,60.84
2022-08-09T19:15:07.082Z,60.15
2022-08-09T19:17:54.841Z,60.76
2022-08-09T19:20:24.033Z,61.20
2022-08-09T19:22:54.432Z,61.86
2022-08-09T19:25:41.646Z,62.12
2022-08-09T19:28:13.109Z,62.38
2022-08-09T19:30:44.268Z,62.84
2022-08-09T19:33:19.313Z,63.19
2022-08-09T19:35:57.594Z,62.67
2022-08-09T19:38:27.851Z,62.78
2022-08-09T19:40:59.700Z,63.10
2022-08-09T19:44:01.498Z,63.12
2022-08-09T19:46:15.097Z,62.28
2022-08-09T19:49:01.759Z,62.28
2022-08-09T19:51:30.749Z,62.31
2022-08-09T19:54:01.506Z,62.48
2022-08-09T19:56:29.890Z,62.31
2022-08-09T19:59:39.599Z,61.92
2022-08-09T20:02:05.248Z,61.30
2022-08-09T20:04:40.791Z,61.44
2022-08-09T20:07:15.999Z,61.39
2022-08-09T20:09:49.119Z,60.95
2022-08-09T20:12:29.970Z,60.25
2022-08-09T20:16:31.791Z,59.57
2022-08-09T20:17:54.714Z,59.20
2022-08-09T20:20:24.625Z,59.29
2022-08-09T20:22:56.489Z,58.96
2022-08-09T20:25:25.338Z,59.24
2022-08-09T20:27:52.598Z,59.10
2022-08-09T20:30:23.750Z,58.61
2022-08-09T20:32:52.460Z,58.54
2022-08-09T20:35:21.576Z,58.58
2022-08-09T20:38:21.172Z,58.12
2022-08-09T20:40:36.356Z,57.46
2022-08-09T20:43:18.493Z,57.03
2022-08-09T20:45:59.497Z,56.60
2022-08-09T20:48:31.048Z,56.19
2022-08-09T20:50:59.882Z,56.07
2022-08-09T20:53:36.867Z,55.86
2022-08-09T20:56:20.743Z,55.99
2022-08-09T20:58:54.627Z,55.44
2022-08-09T21:01:34.012Z,55.45
2022-08-09T21:05:52.071Z,55.54
2022-08-09T21:07:12.534Z,55.45
2022-08-09T21:09:55.707Z,55.45
2022-08-09T21:15:15.231Z,55.24
2022-08-09T21:18:11.773Z,54.97
2022-08-09T21:20:31.772Z,55.12
2022-08-09T21:23:00.451Z,54.95
2022-08-09T21:25:55.436Z,54.98
2022-08-09T21:28:35.058Z,55.06
2022-08-09T21:31:13.510Z,54.91
2022-08-09T21:33:52.156Z,54.61
2022-08-09T21:36:28.935Z,54.18
2022-08-09T21:38:59.173Z,54.23
2022-08-09T21:42:04.739Z,53.91
2022-08-09T21:44:34.045Z,53.90
2022-08-09T21:47:07.967Z,54.11
2022-08-09T21:49:39.858Z,54.02
2022-08-09T21:52:16.408Z,54.05
2022-08-09T21:55:03.147Z,54.14
2022-08-09T21:57:39.148Z,53.97
2022-08-09T22:00:32.304Z,53.64
2022-08-09T22:03:04.811Z,53.40
2022-08-09T22:05:36.974Z,53.35
2022-08-09T22:08:13.771Z,52.71
2022-08-09T22:11:26.474Z,52.89
2022-08-09T22:13:35.476Z,53.24
2022-08-09T22:16:08.293Z,53.17
2022-08-09T22:18:38.632Z,53.01
2022-08-09T22:21:24.173Z,53.39
2022-08-09T22:24:01.570Z,52.78
2022-08-09T22:26:35.562Z,52.70
2022-08-09T22:29:09.461Z,52.77
2022-08-09T22:31:50.368Z,53.26
2022-08-09T22:34:25.574Z,53.05
2022-08-09T22:36:54.124Z,52.77
2022-08-09T22:39:57.412Z,53.01
2022-08-09T22:42:21.483Z,53.51
2022-08-09T22:45:11.578Z,53.58
2022-08-09T22:48:16.603Z,53.63
2022-08-09T22:50:29.859Z,53.67
2022-08-09T22:52:58.651Z,53.87
2022-08-09T22:55:33.775Z,54.53
2022-08-09T22:58:20.200Z,54.95
2022-08-09T23:00:57.973Z,55.25
2022-08-09T23:03:31.180Z,55.68
2022-08-09T23:06:14.281Z,55.39
2022-08-09T23:08:44.517Z,55.48
2022-08-09T23:11:21.245Z,55.00
2022-08-09T23:13:53.559Z,55.32
2022-08-09T23:16:23.099Z,54.93
2022-08-09T23:18:50.251Z,55.31
2022-08-09T23:21:24.509Z,54.98
2022-08-09T23:24:05.722Z,55.10
2022-08-09T23:26:38.558Z,55.04
2022-08-09T23:29:07.521Z,55.20
2022-08-09T23:31:34.709Z,55.28
2022-08-09T23:34:02.649Z,55.48
2022-08-09T23:36:31.219Z,55.40
2022-08-09T23:38:58.384Z,54.85
2022-08-09T23:41:27.577Z,53.61
2022-08-09T23:43:57.994Z,52.91
2022-08-09T23:46:25.094Z,52.39
2022-08-09T23:48:52.275Z,52.62
2022-08-09T23:51:19.379Z,52.02
2022-08-09T23:53:47.342Z,51.42
2022-08-09T23:56:18.222Z,50.95
2022-08-09T23:59:05.111Z,51.07
